Terminal Aerodrome Forecast
Issued by NWS Green Bay, WI

Home | Current Version | Previous Version | Graphics & Text | Print | Product List | Glossary On
Versions: 1 2 3 4 5 6 7 8 9 10 11 12 13 14 15 16 17 18
000
FTUS43 KGRB 172107 AAB
TAFGRB
TAF AMD
KGRB 172107Z 1721/1818 21013G21KT P6SM VCSH FEW030 OVC050
     FM180000 26014G22KT P6SM VCSH SCT015 OVC025
      TEMPO 1800/1804 BKN015
     FM180600 29011G18KT P6SM BKN025
     FM181500 30014G22KT P6SM SCT025 BKN050=

USA.gov is the U.S. government's official web portal to all federal, state and local government web resources and services.